This is the latest recevied weather packets stored in our database for station/object SQ5JP-4. If no packets are shown the sender has not sent any weather packets the latest 10 day(s).
| Time | Temp. | Humidity | Pressure | Rain* | Wind** | Luminosity | Snow |
|---|---|---|---|---|---|---|---|
| 1777481985 | 6.67° C | 58% | 1010 hPa | - | - | - | - |
| 1777481084 | 7.22° C | 58% | 1009.9 hPa | - | - | - | - |
| 1777480184 | 6.67° C | 56% | 1009.9 hPa | - | - | - | - |
| 1777479284 | 7.22° C | 53% | 1009.8 hPa | - | - | - | - |
| 1777478384 | 7.22° C | 53% | 1009.8 hPa | - | - | - | - |
| 1777477484 | 7.22° C | 53% | 1009.8 hPa | - | - | - | - |
| 1777476584 | 7.78° C | 52% | 1009.8 hPa | - | - | - | - |
| 1777475683 | 7.78° C | 52% | 1009.7 hPa | - | - | - | - |
| 1777474783 | 7.78° C | 50% | 1009.8 hPa | - | - | - | - |
| 1777473883 | 8.33° C | 49% | 1009.7 hPa | - | - | - | - |
| 1777472982 | 8.89° C | 48% | 1009.6 hPa | - | - | - | - |
| 1777471185 | 8.33° C | 50% | 1009.7 hPa | - | - | - | - |
| 1777470285 | 9.44° C | 49% | 1009.5 hPa | - | - | - | - |
| 1777469385 | 10° C | 50% | 1009.5 hPa | - | - | - | - |
| 1777468485 | 9.44° C | 49% | 1009.5 hPa | - | - | - | - |
| 1777467585 | 8.89° C | 50% | 1009.6 hPa | - | - | - | - |
| 1777466685 | 8.33° C | 49% | 1009.6 hPa | - | - | - | - |
| 1777465785 | 9.44° C | 48% | 1009.6 hPa | - | - | - | - |
| 1777464884 | 8.33° C | 52% | 1009.7 hPa | - | - | - | - |
| 1777463984 | 8.33° C | 53% | 1009.6 hPa | - | - | - | - |
| 1777463084 | 8.33° C | 54% | 1009.5 hPa | - | - | - | - |
| 1777462184 | 8.33° C | 52% | 1009.5 hPa | - | - | - | - |
| 1777461284 | 8.33° C | 53% | 1009.5 hPa | - | - | - | - |
| 1777460384 | 8.89° C | 52% | 1009.3 hPa | - | - | - | - |
| 1777459484 | 8.33° C | 56% | 1009.4 hPa | - | - | - | - |
* Rain since midnight (hover to see other rain measurements)
** Current wind speed in m/s (hover to see current wind gust speed)